KPTB/PTB METAR and TAF weather

Enter ICAO airport designator
Station Type Date Time Source
KPTB METAR 2020/04/06 11:15 UTC NOAA

KPTB 061115Z AUTO 00000KT 10SM CLR 08/06 A3005 RMK AO2 T00750064


Station Type Date Time Source
KPTB Decoded METAR 2020/04/06 11:15 UTC NOAA

Petersburg, Dinwiddie County Airport, VA, United States (KPTB) 37-11N 077-31W
Apr 06, 2020 - 07:15 AM EDT / 2020.04.06 1115 UTC
Wind: Calm:0
Visibility: 10 mile(s):0
Sky conditions: clear
Temperature: 45.5 F (7.5 C)
Dew Point: 43.5 F (6.4 C)
Relative Humidity: 92%
Pressure (altimeter): 30.05 in. Hg (1017 hPa)
ob: KPTB 061115Z AUTO 00000KT 10SM CLR 08/06 A3005 RMK AO2 T00750064
cycle: 11

Station Type Date Time Source
KPTB TAF UTC NOAA

Error!

Example: see airport list